sensor_id;sensor_type;location;lat;lon;timestamp;pressure;altitude;pressure_sealevel;temperature;humidity
70954;BME280;58618;47.490;8.736;2023-12-14T00:00:03;95524.47;;;5.71;100.00
70954;BME280;58618;47.490;8.736;2023-12-14T00:02:51;95531.06;;;5.77;100.00
70954;BME280;58618;47.490;8.736;2023-12-14T00:05:38;95535.72;;;5.70;100.00
70954;BME280;58618;47.490;8.736;2023-12-14T00:08:26;95530.63;;;5.70;100.00
70954;BME280;58618;47.490;8.736;2023-12-14T00:11:13;95538.78;;;5.72;100.00
70954;BME280;58618;47.490;8.736;2023-12-14T00:14:03;95539.84;;;5.61;100.00
70954;BME280;58618;47.490;8.736;2023-12-14T00:16:52;95543.50;;;5.55;100.00
70954;BME280;58618;47.490;8.736;2023-12-14T00:19:39;95547.03;;;5.64;100.00
70954;BME280;58618;47.490;8.736;2023-12-14T00:22:26;95548.50;;;5.75;100.00
70954;BME280;58618;47.490;8.736;2023-12-14T00:25:14;95551.38;;;5.63;100.00
70954;BME280;58618;47.490;8.736;2023-12-14T00:28:01;95555.50;;;5.59;100.00
70954;BME280;58618;47.490;8.736;2023-12-14T00:30:48;95554.72;;;5.59;100.00
70954;BME280;58618;47.490;8.736;2023-12-14T00:33:37;95556.75;;;5.57;100.00
70954;BME280;58618;47.490;8.736;2023-12-14T00:36:24;95560.13;;;5.52;100.00
70954;BME280;58618;47.490;8.736;2023-12-14T00:39:12;95565.50;;;5.45;100.00
70954;BME280;58618;47.490;8.736;2023-12-14T00:41:59;95569.53;;;5.62;100.00
70954;BME280;58618;47.490;8.736;2023-12-14T00:44:46;95575.63;;;5.76;100.00
70954;BME280;58618;47.490;8.736;2023-12-14T00:47:34;95575.91;;;5.69;100.00
70954;BME280;58618;47.490;8.736;2023-12-14T00:50:22;95577.69;;;5.69;100.00
70954;BME280;58618;47.490;8.736;2023-12-14T00:53:10;95583.38;;;5.56;100.00
70954;BME280;58618;47.490;8.736;2023-12-14T00:55:57;95583.31;;;5.71;100.00
70954;BME280;58618;47.490;8.736;2023-12-14T00:58:44;95583.09;;;5.57;100.00
70954;BME280;58618;47.490;8.736;2023-12-14T01:01:32;95584.91;;;5.51;100.00
70954;BME280;58618;47.490;8.736;2023-12-14T01:04:19;95592.34;;;5.53;100.00
70954;BME280;58618;47.490;8.736;2023-12-14T01:07:08;95595.16;;;5.51;100.00
70954;BME280;58618;47.490;8.736;2023-12-14T01:09:55;95605.88;;;5.59;100.00
70954;BME280;58618;47.490;8.736;2023-12-14T01:12:43;95606.06;;;5.72;100.00
70954;BME280;58618;47.490;8.736;2023-12-14T01:15:30;95607.41;;;5.60;100.00
70954;BME280;58618;47.490;8.736;2023-12-14T01:18:18;95605.84;;;5.64;100.00
70954;BME280;58618;47.490;8.736;2023-12-14T01:21:05;95620.38;;;5.78;100.00
70954;BME280;58618;47.490;8.736;2023-12-14T01:23:54;95628.88;;;5.64;100.00
70954;BME280;58618;47.490;8.736;2023-12-14T01:26:41;95628.09;;;5.63;100.00
70954;BME280;58618;47.490;8.736;2023-12-14T01:29:28;95630.88;;;5.72;100.00
70954;BME280;58618;47.490;8.736;2023-12-14T01:32:16;95632.16;;;5.74;100.00
70954;BME280;58618;47.490;8.736;2023-12-14T01:35:04;95636.56;;;5.64;100.00
70954;BME280;58618;47.490;8.736;2023-12-14T01:37:51;95646.53;;;5.65;100.00
70954;BME280;58618;47.490;8.736;2023-12-14T01:40:40;95640.88;;;5.68;100.00
70954;BME280;58618;47.490;8.736;2023-12-14T01:43:27;95646.28;;;5.57;100.00
70954;BME280;58618;47.490;8.736;2023-12-14T01:46:15;95643.69;;;5.67;100.00
70954;BME280;58618;47.490;8.736;2023-12-14T01:49:02;95652.41;;;5.56;100.00
70954;BME280;58618;47.490;8.736;2023-12-14T01:51:49;95651.66;;;5.65;100.00
70954;BME280;58618;47.490;8.736;2023-12-14T01:54:37;95660.56;;;5.68;100.00
70954;BME280;58618;47.490;8.736;2023-12-14T01:57:25;95671.34;;;5.65;100.00
70954;BME280;58618;47.490;8.736;2023-12-14T02:00:19;95663.69;;;5.60;100.00
70954;BME280;58618;47.490;8.736;2023-12-14T02:03:08;95670.31;;;5.61;100.00
70954;BME280;58618;47.490;8.736;2023-12-14T02:05:55;95669.81;;;5.59;100.00
70954;BME280;58618;47.490;8.736;2023-12-14T02:08:44;95682.09;;;5.51;100.00
70954;BME280;58618;47.490;8.736;2023-12-14T02:11:31;95688.22;;;5.56;100.00
70954;BME280;58618;47.490;8.736;2023-12-14T02:14:21;95689.75;;;5.57;100.00
70954;BME280;58618;47.490;8.736;2023-12-14T02:17:09;95684.91;;;5.65;100.00
70954;BME280;58618;47.490;8.736;2023-12-14T02:19:56;95700.00;;;5.57;100.00
70954;BME280;58618;47.490;8.736;2023-12-14T02:22:52;95708.69;;;5.50;100.00
70954;BME280;58618;47.490;8.736;2023-12-14T02:25:39;95712.28;;;5.55;100.00
70954;BME280;58618;47.490;8.736;2023-12-14T02:28:26;95721.00;;;5.48;100.00
70954;BME280;58618;47.490;8.736;2023-12-14T02:31:14;95716.34;;;5.61;100.00
70954;BME280;58618;47.490;8.736;2023-12-14T02:34:02;95722.22;;;5.61;100.00
70954;BME280;58618;47.490;8.736;2023-12-14T02:36:49;95729.66;;;5.63;100.00
70954;BME280;58618;47.490;8.736;2023-12-14T02:39:37;95731.19;;;5.69;100.00
70954;BME280;58618;47.490;8.736;2023-12-14T02:42:25;95722.97;;;5.72;100.00
70954;BME280;58618;47.490;8.736;2023-12-14T02:45:12;95734.50;;;5.69;100.00
70954;BME280;58618;47.490;8.736;2023-12-14T02:47:59;95732.94;;;5.78;100.00
70954;BME280;58618;47.490;8.736;2023-12-14T02:50:47;95738.09;;;5.68;100.00
70954;BME280;58618;47.490;8.736;2023-12-14T02:53:34;95745.25;;;5.66;100.00
70954;BME280;58618;47.490;8.736;2023-12-14T02:56:24;95748.84;;;5.70;100.00
70954;BME280;58618;47.490;8.736;2023-12-14T02:59:11;95740.66;;;5.63;100.00
70954;BME280;58618;47.490;8.736;2023-12-14T03:01:58;95740.91;;;5.57;100.00
70954;BME280;58618;47.490;8.736;2023-12-14T03:04:46;95744.78;;;5.49;100.00
70954;BME280;58618;47.490;8.736;2023-12-14T03:07:33;95742.72;;;5.51;100.00
70954;BME280;58618;47.490;8.736;2023-12-14T03:10:21;95736.38;;;5.33;100.00
70954;BME280;58618;47.490;8.736;2023-12-14T03:13:10;95756.28;;;5.36;100.00
70954;BME280;58618;47.490;8.736;2023-12-14T03:15:57;95754.75;;;5.40;100.00
70954;BME280;58618;47.490;8.736;2023-12-14T03:18:45;95759.84;;;5.50;100.00
70954;BME280;58618;47.490;8.736;2023-12-14T03:21:32;95759.38;;;5.38;100.00
70954;BME280;58618;47.490;8.736;2023-12-14T03:24:19;95769.06;;;5.41;100.00
70954;BME280;58618;47.490;8.736;2023-12-14T03:27:07;95775.72;;;5.42;100.00
70954;BME280;58618;47.490;8.736;2023-12-14T03:29:55;95774.44;;;5.35;100.00
70954;BME280;58618;47.490;8.736;2023-12-14T03:32:43;95774.72;;;5.28;100.00
70954;BME280;58618;47.490;8.736;2023-12-14T03:35:30;95780.84;;;5.47;100.00
70954;BME280;58618;47.490;8.736;2023-12-14T03:38:17;95785.97;;;5.47;100.00
70954;BME280;58618;47.490;8.736;2023-12-14T03:41:05;95789.78;;;5.55;100.00
70954;BME280;58618;47.490;8.736;2023-12-14T03:43:53;95797.72;;;5.53;100.00
70954;BME280;58618;47.490;8.736;2023-12-14T03:46:41;95802.31;;;5.51;100.00
70954;BME280;58618;47.490;8.736;2023-12-14T03:49:29;95800.03;;;5.55;100.00
70954;BME280;58618;47.490;8.736;2023-12-14T03:52:16;95801.81;;;5.49;100.00
70954;BME280;58618;47.490;8.736;2023-12-14T03:55:04;95814.09;;;5.58;100.00
70954;BME280;58618;47.490;8.736;2023-12-14T03:57:52;95809.97;;;5.51;100.00
70954;BME280;58618;47.490;8.736;2023-12-14T04:00:39;95817.16;;;5.60;100.00
70954;BME280;58618;47.490;8.736;2023-12-14T04:03:28;95827.88;;;5.57;100.00
70954;BME280;58618;47.490;8.736;2023-12-14T04:06:15;95825.06;;;5.58;100.00
70954;BME280;58618;47.490;8.736;2023-12-14T04:09:03;95823.28;;;5.64;100.00
70954;BME280;58618;47.490;8.736;2023-12-14T04:11:50;95836.56;;;5.56;100.00
70954;BME280;58618;47.490;8.736;2023-12-14T04:14:37;95829.97;;;5.44;100.00
70954;BME280;58618;47.490;8.736;2023-12-14T04:17:25;95840.19;;;5.55;100.00
70954;BME280;58618;47.490;8.736;2023-12-14T04:20:14;95844.53;;;5.49;100.00
70954;BME280;58618;47.490;8.736;2023-12-14T04:23:01;95854.25;;;5.52;100.00
70954;BME280;58618;47.490;8.736;2023-12-14T04:25:49;95850.41;;;5.55;100.00
70954;BME280;58618;47.490;8.736;2023-12-14T04:28:37;95866.78;;;5.64;100.00
70954;BME280;58618;47.490;8.736;2023-12-14T04:31:24;95866.25;;;5.51;100.00
70954;BME280;58618;47.490;8.736;2023-12-14T04:34:12;95877.50;;;5.61;100.00
70954;BME280;58618;47.490;8.736;2023-12-14T04:37:03;95877.50;;;5.61;100.00
70954;BME280;58618;47.490;8.736;2023-12-14T04:39:51;95885.69;;;5.47;100.00
70954;BME280;58618;47.490;8.736;2023-12-14T04:42:38;95886.72;;;5.51;100.00
70954;BME280;58618;47.490;8.736;2023-12-14T04:45:25;95894.41;;;5.57;100.00
70954;BME280;58618;47.490;8.736;2023-12-14T04:48:12;95894.91;;;5.53;100.00
70954;BME280;58618;47.490;8.736;2023-12-14T04:51:01;95901.81;;;5.53;100.00
70954;BME280;58618;47.490;8.736;2023-12-14T04:53:50;95902.84;;;5.52;100.00
70954;BME280;58618;47.490;8.736;2023-12-14T04:56:37;95918.97;;;5.63;100.00
70954;BME280;58618;47.490;8.736;2023-12-14T04:59:24;95915.13;;;5.60;100.00
70954;BME280;58618;47.490;8.736;2023-12-14T05:02:12;95926.09;;;5.61;100.00
70954;BME280;58618;47.490;8.736;2023-12-14T05:04:59;95921.25;;;5.54;100.00
70954;BME280;58618;47.490;8.736;2023-12-14T05:07:47;95917.41;;;5.62;100.00
70954;BME280;58618;47.490;8.736;2023-12-14T05:10:35;95935.84;;;5.64;100.00
70954;BME280;58618;47.490;8.736;2023-12-14T05:13:23;95943.00;;;5.67;100.00
70954;BME280;58618;47.490;8.736;2023-12-14T05:16:14;95945.56;;;5.77;100.00
70954;BME280;58618;47.490;8.736;2023-12-14T05:19:01;95947.63;;;5.75;100.00
70954;BME280;58618;47.490;8.736;2023-12-14T05:21:48;95956.84;;;5.66;100.00
70954;BME280;58618;47.490;8.736;2023-12-14T05:24:36;95961.44;;;5.64;100.00
70954;BME280;58618;47.490;8.736;2023-12-14T05:27:25;95960.41;;;5.70;100.00
70954;BME280;58618;47.490;8.736;2023-12-14T05:30:13;95957.31;;;5.58;100.00
70954;BME280;58618;47.490;8.736;2023-12-14T05:33:00;95959.88;;;5.52;100.00
70954;BME280;58618;47.490;8.736;2023-12-14T05:35:48;95962.69;;;5.66;100.00
70954;BME280;58618;47.490;8.736;2023-12-14T05:38:35;95968.59;;;5.72;100.00
70954;BME280;58618;47.490;8.736;2023-12-14T05:41:23;95966.53;;;5.64;100.00
70954;BME280;58618;47.490;8.736;2023-12-14T05:44:12;95982.13;;;5.57;100.00
70954;BME280;58618;47.490;8.736;2023-12-14T05:46:59;95981.34;;;5.57;100.00
70954;BME280;58618;47.490;8.736;2023-12-14T05:49:46;95990.03;;;5.45;100.00
70954;BME280;58618;47.490;8.736;2023-12-14T05:52:34;95998.25;;;5.63;100.00
70954;BME280;58618;47.490;8.736;2023-12-14T05:55:22;96001.81;;;5.57;100.00
70954;BME280;58618;47.490;8.736;2023-12-14T05:58:09;96010.25;;;5.52;100.00
70954;BME280;58618;47.490;8.736;2023-12-14T06:00:58;96012.06;;;5.57;100.00
70954;BME280;58618;47.490;8.736;2023-12-14T06:03:46;96023.28;;;5.50;100.00
70954;BME280;58618;47.490;8.736;2023-12-14T06:06:33;96022.00;;;5.43;100.00
70954;BME280;58618;47.490;8.736;2023-12-14T06:09:20;96024.31;;;5.44;100.00
70954;BME280;58618;47.490;8.736;2023-12-14T06:14:48;96039.16;;;5.52;100.00
70954;BME280;58618;47.490;8.736;2023-12-14T06:17:39;96017.84;;;5.22;100.00
70954;BME280;58618;47.490;8.736;2023-12-14T06:20:28;96055.00;;;5.44;100.00
70954;BME280;58618;47.490;8.736;2023-12-14T06:23:15;96063.44;;;5.50;100.00
70954;BME280;58618;47.490;8.736;2023-12-14T06:26:03;96067.03;;;5.49;100.00
70954;BME280;58618;47.490;8.736;2023-12-14T06:28:51;96068.78;;;5.38;100.00
70954;BME280;58618;47.490;8.736;2023-12-14T06:31:39;96081.53;;;5.28;100.00
70954;BME280;58618;47.490;8.736;2023-12-14T06:34:28;96068.78;;;5.33;100.00
70954;BME280;58618;47.490;8.736;2023-12-14T06:37:16;96082.56;;;5.32;100.00
70954;BME280;58618;47.490;8.736;2023-12-14T06:40:05;96093.00;;;5.26;100.00
70954;BME280;58618;47.490;8.736;2023-12-14T06:42:53;96088.16;;;5.29;100.00
70954;BME280;58618;47.490;8.736;2023-12-14T06:45:40;96105.34;;;5.34;100.00
70954;BME280;58618;47.490;8.736;2023-12-14T06:48:28;96103.28;;;5.36;100.00
70954;BME280;58618;47.490;8.736;2023-12-14T06:51:17;96108.72;;;5.44;100.00
70954;BME280;58618;47.490;8.736;2023-12-14T06:54:04;96115.38;;;5.50;100.00
70954;BME280;58618;47.490;8.736;2023-12-14T06:56:51;96118.47;;;5.52;100.00
70954;BME280;58618;47.490;8.736;2023-12-14T06:59:39;96120.25;;;5.57;100.00
70954;BME280;58618;47.490;8.736;2023-12-14T07:02:26;96127.91;;;5.52;100.00
70954;BME280;58618;47.490;8.736;2023-12-14T07:05:14;96124.09;;;5.49;100.00
70954;BME280;58618;47.490;8.736;2023-12-14T07:08:03;96143.03;;;5.59;100.00
70954;BME280;58618;47.490;8.736;2023-12-14T07:10:50;96153.28;;;5.59;100.00
70954;BME280;58618;47.490;8.736;2023-12-14T07:13:38;96149.19;;;5.58;100.00
70954;BME280;58618;47.490;8.736;2023-12-14T07:16:25;96151.28;;;5.66;100.00
70954;BME280;58618;47.490;8.736;2023-12-14T07:19:12;96153.78;;;5.61;100.00
70954;BME280;58618;47.490;8.736;2023-12-14T07:22:00;96158.44;;;5.69;100.00
70954;BME280;58618;47.490;8.736;2023-12-14T07:24:48;96154.88;;;5.70;100.00
70954;BME280;58618;47.490;8.736;2023-12-14T07:27:36;96164.09;;;5.71;100.00
70954;BME280;58618;47.490;8.736;2023-12-14T07:30:23;96165.09;;;5.70;100.00
70954;BME280;58618;47.490;8.736;2023-12-14T07:33:11;96173.31;;;5.82;100.00
70954;BME280;58618;47.490;8.736;2023-12-14T07:35:58;96183.28;;;5.78;100.00
70954;BME280;58618;47.490;8.736;2023-12-14T07:38:45;96179.97;;;5.78;100.00
70954;BME280;58618;47.490;8.736;2023-12-14T07:41:34;96174.84;;;5.78;100.00
70954;BME280;58618;47.490;8.736;2023-12-14T07:44:21;96197.88;;;5.78;100.00
70954;BME280;58618;47.490;8.736;2023-12-14T07:47:11;96203.50;;;5.75;100.00
70954;BME280;58618;47.490;8.736;2023-12-14T07:49:58;96207.13;;;5.84;100.00
70954;BME280;58618;47.490;8.736;2023-12-14T07:52:46;96200.75;;;5.86;100.00
70954;BME280;58618;47.490;8.736;2023-12-14T07:55:33;96213.59;;;5.91;100.00
70954;BME280;58618;47.490;8.736;2023-12-14T07:58:22;96214.84;;;5.89;100.00
70954;BME280;58618;47.490;8.736;2023-12-14T08:01:09;96217.88;;;5.81;100.00
70954;BME280;58618;47.490;8.736;2023-12-14T08:03:56;96235.34;;;5.89;100.00
70954;BME280;58618;47.490;8.736;2023-12-14T08:06:43;96243.03;;;5.94;100.00
70954;BME280;58618;47.490;8.736;2023-12-14T08:09:31;96240.00;;;6.02;100.00
70954;BME280;58618;47.490;8.736;2023-12-14T08:12:19;96246.38;;;6.00;100.00
70954;BME280;58618;47.490;8.736;2023-12-14T08:15:09;96256.69;;;6.10;100.00
70954;BME280;58618;47.490;8.736;2023-12-14T08:17:58;96253.88;;;6.11;100.00
70954;BME280;58618;47.490;8.736;2023-12-14T08:20:45;96256.91;;;6.08;100.00
70954;BME280;58618;47.490;8.736;2023-12-14T08:23:32;96255.47;;;6.22;100.00
70954;BME280;58618;47.490;8.736;2023-12-14T08:26:20;96266.50;;;6.33;100.00
70954;BME280;58618;47.490;8.736;2023-12-14T08:29:07;96272.13;;;6.30;100.00
70954;BME280;58618;47.490;8.736;2023-12-14T08:31:56;96276.78;;;6.38;100.00
70954;BME280;58618;47.490;8.736;2023-12-14T08:34:45;96274.47;;;6.42;100.00
70954;BME280;58618;47.490;8.736;2023-12-14T08:37:35;96290.63;;;6.47;100.00
70954;BME280;58618;47.490;8.736;2023-12-14T08:40:22;96289.63;;;6.48;100.00
70954;BME280;58618;47.490;8.736;2023-12-14T08:43:10;96299.06;;;6.38;100.00
70954;BME280;58618;47.490;8.736;2023-12-14T08:45:57;96295.72;;;6.37;100.00
70954;BME280;58618;47.490;8.736;2023-12-14T08:48:46;96308.34;;;6.54;100.00
70954;BME280;58618;47.490;8.736;2023-12-14T08:51:35;96320.19;;;6.65;100.00
70954;BME280;58618;47.490;8.736;2023-12-14T08:54:22;96317.63;;;6.75;100.00
70954;BME280;58618;47.490;8.736;2023-12-14T08:57:09;96325.59;;;6.78;100.00
70954;BME280;58618;47.490;8.736;2023-12-14T08:59:57;96328.16;;;6.78;100.00
70954;BME280;58618;47.490;8.736;2023-12-14T09:02:44;96339.97;;;6.85;100.00
70954;BME280;58618;47.490;8.736;2023-12-14T09:05:33;96347.91;;;6.83;100.00
70954;BME280;58618;47.490;8.736;2023-12-14T09:08:21;96351.75;;;6.86;100.00
70954;BME280;58618;47.490;8.736;2023-12-14T09:11:08;96363.28;;;6.88;100.00
70954;BME280;58618;47.490;8.736;2023-12-14T09:13:55;96361.28;;;7.00;100.00
70954;BME280;58618;47.490;8.736;2023-12-14T09:16:43;96376.44;;;7.02;100.00
70954;BME280;58618;47.490;8.736;2023-12-14T09:19:30;96380.22;;;6.84;100.00
70954;BME280;58618;47.490;8.736;2023-12-14T09:22:19;96380.69;;;6.76;100.00
70954;BME280;58618;47.490;8.736;2023-12-14T09:25:07;96394.00;;;6.73;100.00
70954;BME280;58618;47.490;8.736;2023-12-14T09:27:55;96396.53;;;6.68;100.00
70954;BME280;58618;47.490;8.736;2023-12-14T09:30:42;96404.44;;;6.56;100.00
70954;BME280;58618;47.490;8.736;2023-12-14T09:33:30;96407.00;;;6.61;100.00
70954;BME280;58618;47.490;8.736;2023-12-14T09:36:18;96412.09;;;6.51;100.00
70954;BME280;58618;47.490;8.736;2023-12-14T09:39:07;96415.22;;;6.63;100.00
70954;BME280;58618;47.490;8.736;2023-12-14T09:42:02;96416.44;;;6.51;100.00
70954;BME280;58618;47.490;8.736;2023-12-14T09:44:50;96426.97;;;6.54;100.00
70954;BME280;58618;47.490;8.736;2023-12-14T09:47:38;96432.06;;;6.49;100.00
70954;BME280;58618;47.490;8.736;2023-12-14T09:50:26;96424.22;;;6.61;100.00
70954;BME280;58618;47.490;8.736;2023-12-14T09:53:13;96426.00;;;6.60;100.00
70954;BME280;58618;47.490;8.736;2023-12-14T09:56:02;96426.78;;;6.66;100.00
70954;BME280;58618;47.490;8.736;2023-12-14T09:58:50;96430.75;;;6.47;100.00
70954;BME280;58618;47.490;8.736;2023-12-14T10:01:38;96441.84;;;6.57;100.00
70954;BME280;58618;47.490;8.736;2023-12-14T10:04:25;96442.63;;;6.58;100.00
70954;BME280;58618;47.490;8.736;2023-12-14T10:07:13;96450.84;;;6.60;100.00
70954;BME280;58618;47.490;8.736;2023-12-14T10:10:09;96449.28;;;6.59;100.00
70954;BME280;58618;47.490;8.736;2023-12-14T10:13:00;96453.81;;;6.47;100.00
70954;BME280;58618;47.490;8.736;2023-12-14T10:15:48;96452.09;;;6.57;100.00
70954;BME280;58618;47.490;8.736;2023-12-14T10:18:36;96452.44;;;6.71;100.00
70954;BME280;58618;47.490;8.736;2023-12-14T10:21:25;96464.00;;;6.78;100.00
70954;BME280;58618;47.490;8.736;2023-12-14T10:24:13;96452.44;;;6.71;100.00
70954;BME280;58618;47.490;8.736;2023-12-14T10:27:04;96459.69;;;6.89;100.00
70954;BME280;58618;47.490;8.736;2023-12-14T10:29:55;96453.28;;;6.82;100.00
70954;BME280;58618;47.490;8.736;2023-12-14T10:32:43;96462.25;;;6.84;100.00
70954;BME280;58618;47.490;8.736;2023-12-14T10:35:30;96462.75;;;6.81;100.00
70954;BME280;58618;47.490;8.736;2023-12-14T10:38:18;96467.66;;;6.93;100.00
70954;BME280;58618;47.490;8.736;2023-12-14T10:41:07;96465.88;;;6.98;100.00
70954;BME280;58618;47.490;8.736;2023-12-14T10:43:56;96472.88;;;7.08;100.00
70954;BME280;58618;47.490;8.736;2023-12-14T10:46:47;96465.97;;;7.13;100.00
70954;BME280;58618;47.490;8.736;2023-12-14T10:49:36;96478.81;;;7.18;100.00
70954;BME280;58618;47.490;8.736;2023-12-14T10:52:24;96479.31;;;7.15;100.00
70954;BME280;58618;47.490;8.736;2023-12-14T10:55:23;96486.50;;;7.13;100.00
70954;BME280;58618;47.490;8.736;2023-12-14T10:58:12;96485.97;;;7.16;100.00
70954;BME280;58618;47.490;8.736;2023-12-14T11:01:00;96492.59;;;7.02;100.00
70954;BME280;58618;47.490;8.736;2023-12-14T11:03:50;96504.66;;;7.07;100.00
70954;BME280;58618;47.490;8.736;2023-12-14T11:06:37;96513.59;;;6.99;100.00
70954;BME280;58618;47.490;8.736;2023-12-14T11:09:25;96514.38;;;7.05;100.00
70954;BME280;58618;47.490;8.736;2023-12-14T11:12:14;96523.81;;;6.94;100.00
70954;BME280;58618;47.490;8.736;2023-12-14T11:15:07;96521.56;;;6.98;100.00
70954;BME280;58618;47.490;8.736;2023-12-14T11:18:23;96525.38;;;6.95;100.00
70954;BME280;58618;47.490;8.736;2023-12-14T11:21:17;96532.06;;;6.96;100.00
70954;BME280;58618;47.490;8.736;2023-12-14T11:24:05;96527.44;;;6.98;100.00
70954;BME280;58618;47.490;8.736;2023-12-14T11:26:54;96532.78;;;6.92;100.00
70954;BME280;58618;47.490;8.736;2023-12-14T11:29:42;96534.09;;;6.99;100.00
70954;BME280;58618;47.490;8.736;2023-12-14T11:32:29;96530.56;;;7.10;100.00
70954;BME280;58618;47.490;8.736;2023-12-14T11:35:16;96536.66;;;6.99;100.00
70954;BME280;58618;47.490;8.736;2023-12-14T11:38:05;96533.47;;;6.82;100.00
70954;BME280;58618;47.490;8.736;2023-12-14T11:40:58;96548.13;;;6.82;100.00
70954;BME280;58618;47.490;8.736;2023-12-14T11:43:46;96547.84;;;6.83;100.00
70954;BME280;58618;47.490;8.736;2023-12-14T11:46:33;96549.41;;;6.84;100.00
70954;BME280;58618;47.490;8.736;2023-12-14T11:49:20;96552.00;;;6.89;100.00
70954;BME280;58618;47.490;8.736;2023-12-14T11:52:08;96552.78;;;6.90;100.00
70954;BME280;58618;47.490;8.736;2023-12-14T11:54:56;96559.66;;;6.84;100.00
70954;BME280;58618;47.490;8.736;2023-12-14T11:57:46;96550.06;;;6.69;100.00
70954;BME280;58618;47.490;8.736;2023-12-14T12:00:34;96558.03;;;6.73;100.00
70954;BME280;58618;47.490;8.736;2023-12-14T12:03:23;96564.13;;;6.67;100.00
70954;BME280;58618;47.490;8.736;2023-12-14T12:06:20;96559.78;;;6.67;100.00
70954;BME280;58618;47.490;8.736;2023-12-14T12:09:08;96568.84;;;6.75;100.00
70954;BME280;58618;47.490;8.736;2023-12-14T12:11:58;96569.44;;;6.87;100.00
70954;BME280;58618;47.490;8.736;2023-12-14T12:14:45;96568.34;;;6.83;100.00
70954;BME280;58618;47.490;8.736;2023-12-14T12:17:35;96563.63;;;7.02;100.00
70954;BME280;58618;47.490;8.736;2023-12-14T12:20:23;96573.00;;;6.86;100.00
70954;BME280;58618;47.490;8.736;2023-12-14T12:23:13;96579.75;;;6.97;100.00
70954;BME280;58618;47.490;8.736;2023-12-14T12:26:00;96580.25;;;6.99;100.00
70954;BME280;58618;47.490;8.736;2023-12-14T12:28:49;96582.56;;;6.96;100.00
70954;BME280;58618;47.490;8.736;2023-12-14T12:31:36;96582.00;;;6.89;100.00
70954;BME280;58618;47.490;8.736;2023-12-14T12:34:23;96583.81;;;6.93;100.00
70954;BME280;58618;47.490;8.736;2023-12-14T12:37:11;96593.47;;;6.81;100.00
70954;BME280;58618;47.490;8.736;2023-12-14T12:39:58;96577.84;;;6.83;100.00
70954;BME280;58618;47.490;8.736;2023-12-14T12:42:46;96584.31;;;6.90;100.00
70954;BME280;58618;47.490;8.736;2023-12-14T12:45:36;96581.44;;;6.82;100.00
70954;BME280;58618;47.490;8.736;2023-12-14T12:48:23;96591.97;;;6.85;100.00
70954;BME280;58618;47.490;8.736;2023-12-14T12:51:11;96591.47;;;6.88;100.00
70954;BME280;58618;47.490;8.736;2023-12-14T12:53:59;96589.38;;;6.80;100.00
70954;BME280;58618;47.490;8.736;2023-12-14T12:56:46;96597.13;;;6.90;100.00
70954;BME280;58618;47.490;8.736;2023-12-14T12:59:34;96599.50;;;6.97;100.00
70954;BME280;58618;47.490;8.736;2023-12-14T13:02:23;96602.88;;;7.02;100.00
70954;BME280;58618;47.490;8.736;2023-12-14T13:05:10;96606.72;;;7.05;100.00
70954;BME280;58618;47.490;8.736;2023-12-14T13:07:58;96605.69;;;7.06;100.00
70954;BME280;58618;47.490;8.736;2023-12-14T13:10:46;96604.94;;;7.10;100.00
70954;BME280;58618;47.490;8.736;2023-12-14T13:13:34;96606.44;;;7.01;100.00
70954;BME280;58618;47.490;8.736;2023-12-14T13:16:21;96610.03;;;7.00;100.00
70954;BME280;58618;47.490;8.736;2023-12-14T13:19:10;96611.09;;;7.09;100.00
70954;BME280;58618;47.490;8.736;2023-12-14T13:21:57;96621.84;;;7.06;100.00
70954;BME280;58618;47.490;8.736;2023-12-14T13:24:45;96616.97;;;7.05;100.00
70954;BME280;58618;47.490;8.736;2023-12-14T13:27:33;96624.53;;;7.21;100.00
70954;BME280;58618;47.490;8.736;2023-12-14T13:30:22;96631.06;;;7.02;100.00
70954;BME280;58618;47.490;8.736;2023-12-14T13:33:09;96637.00;;;7.08;100.00
70954;BME280;58618;47.490;8.736;2023-12-14T13:35:59;96643.91;;;7.02;100.00
70954;BME280;58618;47.490;8.736;2023-12-14T13:38:46;96636.16;;;6.97;100.00
70954;BME280;58618;47.490;8.736;2023-12-14T13:41:34;96645.84;;;6.90;100.00
70954;BME280;58618;47.490;8.736;2023-12-14T13:44:21;96643.91;;;7.02;100.00
70954;BME280;58618;47.490;8.736;2023-12-14T13:47:08;96650.00;;;6.96;100.00
70954;BME280;58618;47.490;8.736;2023-12-14T13:49:56;96654.16;;;7.02;100.00
70954;BME280;58618;47.490;8.736;2023-12-14T13:52:44;96655.88;;;6.92;100.00
70954;BME280;58618;47.490;8.736;2023-12-14T13:55:32;96658.91;;;6.89;100.00
70954;BME280;58618;47.490;8.736;2023-12-14T13:58:20;96670.31;;;7.03;100.00
70954;BME280;58618;47.490;8.736;2023-12-14T14:01:08;96681.81;;;7.00;100.00
70954;BME280;58618;47.490;8.736;2023-12-14T14:03:55;96657.13;;;6.89;100.00
70954;BME280;58618;47.490;8.736;2023-12-14T14:06:43;96681.59;;;7.02;100.00
70954;BME280;58618;47.490;8.736;2023-12-14T14:09:31;96679.41;;;6.89;100.00
70954;BME280;58618;47.490;8.736;2023-12-14T14:12:19;96703.13;;;7.01;100.00
70954;BME280;58618;47.490;8.736;2023-12-14T14:15:07;96696.97;;;7.02;100.00
70954;BME280;58618;47.490;8.736;2023-12-14T14:17:55;96713.78;;;6.93;100.00
70954;BME280;58618;47.490;8.736;2023-12-14T14:20:43;96712.59;;;7.00;100.00
70954;BME280;58618;47.490;8.736;2023-12-14T14:23:30;96715.75;;;7.07;100.00
70954;BME280;58618;47.490;8.736;2023-12-14T14:26:19;96713.06;;;6.92;100.00
70954;BME280;58618;47.490;8.736;2023-12-14T14:29:06;96719.66;;;6.88;100.00
70954;BME280;58618;47.490;8.736;2023-12-14T14:31:57;96728.38;;;6.87;100.00
70954;BME280;58618;47.490;8.736;2023-12-14T14:34:44;96736.88;;;6.93;100.00
70954;BME280;58618;47.490;8.736;2023-12-14T14:37:31;96734.72;;;6.79;100.00
70954;BME280;58618;47.490;8.736;2023-12-14T14:40:19;96729.09;;;6.83;100.00
70954;BME280;58618;47.490;8.736;2023-12-14T14:43:10;96750.53;;;6.98;100.00
70954;BME280;58618;47.490;8.736;2023-12-14T14:45:57;96758.06;;;7.10;100.00
70954;BME280;58618;47.490;8.736;2023-12-14T14:48:45;96753.03;;;6.93;100.00
70954;BME280;58618;47.490;8.736;2023-12-14T14:51:32;96761.38;;;7.05;100.00